sensor_id;sensor_type;location;lat;lon;timestamp;P1;durP1;ratioP1;P2;durP2;ratioP2
63320;SDS011;49449;48.800;9.534;2024-02-26T00:02:25;1.50;;;1.40;;
63320;SDS011;49449;48.800;9.534;2024-02-26T00:04:53;2.17;;;2.08;;
63320;SDS011;49449;48.800;9.534;2024-02-26T00:07:21;2.67;;;2.58;;
63320;SDS011;49449;48.800;9.534;2024-02-26T00:09:48;2.53;;;2.33;;
63320;SDS011;49449;48.800;9.534;2024-02-26T00:12:16;2.30;;;1.70;;
63320;SDS011;49449;48.800;9.534;2024-02-26T00:14:44;2.75;;;2.53;;
63320;SDS011;49449;48.800;9.534;2024-02-26T00:17:14;2.10;;;2.00;;
63320;SDS011;49449;48.800;9.534;2024-02-26T00:19:43;2.42;;;2.22;;
63320;SDS011;49449;48.800;9.534;2024-02-26T00:22:10;2.72;;;2.20;;
63320;SDS011;49449;48.800;9.534;2024-02-26T00:24:39;2.63;;;2.45;;
63320;SDS011;49449;48.800;9.534;2024-02-26T00:27:07;1.70;;;1.60;;
63320;SDS011;49449;48.800;9.534;2024-02-26T00:29:35;2.70;;;2.50;;
63320;SDS011;49449;48.800;9.534;2024-02-26T00:32:03;2.88;;;2.58;;
63320;SDS011;49449;48.800;9.534;2024-02-26T00:34:33;2.33;;;1.90;;
63320;SDS011;49449;48.800;9.534;2024-02-26T00:37:01;2.25;;;2.15;;
63320;SDS011;49449;48.800;9.534;2024-02-26T00:39:29;2.42;;;2.22;;
63320;SDS011;49449;48.800;9.534;2024-02-26T00:41:56;2.88;;;2.67;;
63320;SDS011;49449;48.800;9.534;2024-02-26T00:44:27;2.53;;;2.33;;
63320;SDS011;49449;48.800;9.534;2024-02-26T00:46:55;2.63;;;2.42;;
63320;SDS011;49449;48.800;9.534;2024-02-26T00:49:23;2.15;;;2.05;;
63320;SDS011;49449;48.800;9.534;2024-02-26T00:51:52;2.53;;;2.20;;
63320;SDS011;49449;48.800;9.534;2024-02-26T00:54:20;2.70;;;2.50;;
63320;SDS011;49449;48.800;9.534;2024-02-26T00:56:47;1.95;;;1.70;;
63320;SDS011;49449;48.800;9.534;2024-02-26T00:59:15;2.53;;;2.33;;
63320;SDS011;49449;48.800;9.534;2024-02-26T01:01:43;2.42;;;2.22;;
63320;SDS011;49449;48.800;9.534;2024-02-26T01:04:11;1.75;;;1.65;;
63320;SDS011;49449;48.800;9.534;2024-02-26T01:06:39;2.25;;;2.08;;
63320;SDS011;49449;48.800;9.534;2024-02-26T01:09:08;2.42;;;2.22;;
63320;SDS011;49449;48.800;9.534;2024-02-26T01:11:36;2.70;;;2.10;;
63320;SDS011;49449;48.800;9.534;2024-02-26T01:14:04;3.08;;;2.33;;
63320;SDS011;49449;48.800;9.534;2024-02-26T01:16:32;2.22;;;1.55;;
63320;SDS011;49449;48.800;9.534;2024-02-26T01:19:00;2.05;;;1.95;;
63320;SDS011;49449;48.800;9.534;2024-02-26T01:21:28;2.38;;;2.17;;
63320;SDS011;49449;48.800;9.534;2024-02-26T01:23:56;2.58;;;2.33;;
63320;SDS011;49449;48.800;9.534;2024-02-26T01:26:25;2.60;;;2.40;;
63320;SDS011;49449;48.800;9.534;2024-02-26T01:28:53;2.47;;;2.38;;
63320;SDS011;49449;48.800;9.534;2024-02-26T01:31:21;2.25;;;2.15;;
63320;SDS011;49449;48.800;9.534;2024-02-26T01:33:49;2.30;;;2.10;;
63320;SDS011;49449;48.800;9.534;2024-02-26T01:36:17;1.50;;;1.40;;
63320;SDS011;49449;48.800;9.534;2024-02-26T01:38:45;1.73;;;1.63;;
63320;SDS011;49449;48.800;9.534;2024-02-26T01:41:13;1.70;;;1.60;;
63320;SDS011;49449;48.800;9.534;2024-02-26T01:43:43;2.97;;;2.78;;
63320;SDS011;49449;48.800;9.534;2024-02-26T01:46:11;2.78;;;2.58;;
63320;SDS011;49449;48.800;9.534;2024-02-26T01:48:41;2.42;;;2.33;;
63320;SDS011;49449;48.800;9.534;2024-02-26T01:51:10;3.40;;;2.65;;
63320;SDS011;49449;48.800;9.534;2024-02-26T01:53:39;3.15;;;2.90;;
63320;SDS011;49449;48.800;9.534;2024-02-26T01:56:08;2.22;;;1.95;;
63320;SDS011;49449;48.800;9.534;2024-02-26T01:58:36;2.83;;;2.53;;
63320;SDS011;49449;48.800;9.534;2024-02-26T02:01:05;2.15;;;1.95;;
63320;SDS011;49449;48.800;9.534;2024-02-26T02:03:33;1.73;;;1.60;;
63320;SDS011;49449;48.800;9.534;2024-02-26T02:06:01;2.65;;;2.45;;
63320;SDS011;49449;48.800;9.534;2024-02-26T02:08:30;1.92;;;1.83;;
63320;SDS011;49449;48.800;9.534;2024-02-26T02:10:57;2.40;;;2.20;;
63320;SDS011;49449;48.800;9.534;2024-02-26T02:13:26;2.40;;;2.20;;
63320;SDS011;49449;48.800;9.534;2024-02-26T02:15:54;1.85;;;1.75;;
63320;SDS011;49449;48.800;9.534;2024-02-26T02:18:23;2.17;;;2.08;;
63320;SDS011;49449;48.800;9.534;2024-02-26T02:20:52;2.60;;;2.40;;
63320;SDS011;49449;48.800;9.534;2024-02-26T02:23:25;1.60;;;1.50;;
63320;SDS011;49449;48.800;9.534;2024-02-26T02:25:53;2.50;;;2.30;;
63320;SDS011;49449;48.800;9.534;2024-02-26T02:28:23;2.72;;;1.80;;
63320;SDS011;49449;48.800;9.534;2024-02-26T02:30:53;2.53;;;2.33;;
63320;SDS011;49449;48.800;9.534;2024-02-26T02:33:21;2.30;;;2.17;;
63320;SDS011;49449;48.800;9.534;2024-02-26T02:35:49;2.35;;;2.15;;
63320;SDS011;49449;48.800;9.534;2024-02-26T02:38:21;2.88;;;2.60;;
63320;SDS011;49449;48.800;9.534;2024-02-26T02:40:52;2.65;;;2.45;;
63320;SDS011;49449;48.800;9.534;2024-02-26T02:43:19;2.42;;;2.33;;
63320;SDS011;49449;48.800;9.534;2024-02-26T02:45:47;1.67;;;1.58;;
63320;SDS011;49449;48.800;9.534;2024-02-26T02:48:15;2.75;;;2.42;;
63320;SDS011;49449;48.800;9.534;2024-02-26T02:50:43;2.33;;;2.22;;
63320;SDS011;49449;48.800;9.534;2024-02-26T02:53:10;2.60;;;2.40;;
63320;SDS011;49449;48.800;9.534;2024-02-26T02:55:43;1.98;;;1.88;;
63320;SDS011;49449;48.800;9.534;2024-02-26T02:58:10;2.42;;;2.22;;
63320;SDS011;49449;48.800;9.534;2024-02-26T03:00:38;2.13;;;2.03;;
63320;SDS011;49449;48.800;9.534;2024-02-26T03:03:06;2.65;;;2.45;;
63320;SDS011;49449;48.800;9.534;2024-02-26T03:05:34;2.38;;;2.17;;
63320;SDS011;49449;48.800;9.534;2024-02-26T03:08:02;2.22;;;2.13;;
63320;SDS011;49449;48.800;9.534;2024-02-26T03:10:30;2.63;;;2.42;;
63320;SDS011;49449;48.800;9.534;2024-02-26T03:12:59;2.60;;;2.40;;
63320;SDS011;49449;48.800;9.534;2024-02-26T03:15:27;2.42;;;2.22;;
63320;SDS011;49449;48.800;9.534;2024-02-26T03:17:55;1.73;;;1.63;;
63320;SDS011;49449;48.800;9.534;2024-02-26T03:20:23;2.00;;;1.80;;
63320;SDS011;49449;48.800;9.534;2024-02-26T03:22:50;2.58;;;2.40;;
63320;SDS011;49449;48.800;9.534;2024-02-26T03:25:18;2.33;;;2.22;;
63320;SDS011;49449;48.800;9.534;2024-02-26T03:27:46;2.58;;;2.38;;
63320;SDS011;49449;48.800;9.534;2024-02-26T03:30:15;2.60;;;2.40;;
63320;SDS011;49449;48.800;9.534;2024-02-26T03:32:43;2.78;;;1.90;;
63320;SDS011;49449;48.800;9.534;2024-02-26T03:35:11;2.85;;;2.60;;
63320;SDS011;49449;48.800;9.534;2024-02-26T03:37:39;2.58;;;2.35;;
63320;SDS011;49449;48.800;9.534;2024-02-26T03:40:07;2.67;;;2.47;;
63320;SDS011;49449;48.800;9.534;2024-02-26T03:42:35;3.05;;;2.75;;
63320;SDS011;49449;48.800;9.534;2024-02-26T03:45:03;2.95;;;2.75;;
63320;SDS011;49449;48.800;9.534;2024-02-26T03:47:33;3.38;;;2.78;;
63320;SDS011;49449;48.800;9.534;2024-02-26T03:50:01;5.13;;;3.80;;
63320;SDS011;49449;48.800;9.534;2024-02-26T03:52:30;3.22;;;2.97;;
63320;SDS011;49449;48.800;9.534;2024-02-26T03:54:58;2.70;;;2.50;;
63320;SDS011;49449;48.800;9.534;2024-02-26T03:57:29;3.35;;;2.85;;
63320;SDS011;49449;48.800;9.534;2024-02-26T03:59:58;2.50;;;2.40;;
63320;SDS011;49449;48.800;9.534;2024-02-26T04:02:26;3.00;;;2.47;;
63320;SDS011;49449;48.800;9.534;2024-02-26T04:04:56;2.58;;;2.38;;
63320;SDS011;49449;48.800;9.534;2024-02-26T04:07:23;3.47;;;2.63;;
63320;SDS011;49449;48.800;9.534;2024-02-26T04:09:51;2.33;;;1.80;;
63320;SDS011;49449;48.800;9.534;2024-02-26T04:12:19;2.35;;;2.15;;
63320;SDS011;49449;48.800;9.534;2024-02-26T04:14:47;1.80;;;1.70;;
63320;SDS011;49449;48.800;9.534;2024-02-26T04:17:15;2.35;;;2.25;;
63320;SDS011;49449;48.800;9.534;2024-02-26T04:19:43;2.85;;;2.25;;
63320;SDS011;49449;48.800;9.534;2024-02-26T04:22:12;2.65;;;2.17;;
63320;SDS011;49449;48.800;9.534;2024-02-26T04:24:40;2.78;;;2.58;;
63320;SDS011;49449;48.800;9.534;2024-02-26T04:27:08;2.63;;;2.47;;
63320;SDS011;49449;48.800;9.534;2024-02-26T04:29:36;2.63;;;2.53;;
63320;SDS011;49449;48.800;9.534;2024-02-26T04:32:03;3.15;;;2.65;;
63320;SDS011;49449;48.800;9.534;2024-02-26T04:34:31;4.30;;;2.63;;
63320;SDS011;49449;48.800;9.534;2024-02-26T04:36:59;2.78;;;2.42;;
63320;SDS011;49449;48.800;9.534;2024-02-26T04:39:28;2.00;;;1.90;;
63320;SDS011;49449;48.800;9.534;2024-02-26T04:41:56;2.42;;;2.22;;
63320;SDS011;49449;48.800;9.534;2024-02-26T04:44:24;1.50;;;1.40;;
63320;SDS011;49449;48.800;9.534;2024-02-26T04:46:52;1.48;;;1.38;;
63320;SDS011;49449;48.800;9.534;2024-02-26T04:49:20;1.92;;;1.83;;
63320;SDS011;49449;48.800;9.534;2024-02-26T04:51:47;2.83;;;2.63;;
63320;SDS011;49449;48.800;9.534;2024-02-26T04:54:15;2.65;;;2.45;;
63320;SDS011;49449;48.800;9.534;2024-02-26T04:56:45;2.65;;;2.45;;
63320;SDS011;49449;48.800;9.534;2024-02-26T04:59:12;2.20;;;2.10;;
63320;SDS011;49449;48.800;9.534;2024-02-26T05:01:40;2.25;;;2.15;;
63320;SDS011;49449;48.800;9.534;2024-02-26T05:04:08;2.00;;;1.67;;
63320;SDS011;49449;48.800;9.534;2024-02-26T05:06:36;1.88;;;1.60;;
63320;SDS011;49449;48.800;9.534;2024-02-26T05:09:04;2.03;;;1.83;;
63320;SDS011;49449;48.800;9.534;2024-02-26T05:11:32;3.05;;;2.75;;
63320;SDS011;49449;48.800;9.534;2024-02-26T05:14:01;3.70;;;1.95;;
63320;SDS011;49449;48.800;9.534;2024-02-26T05:16:33;1.80;;;1.70;;
63320;SDS011;49449;48.800;9.534;2024-02-26T05:19:01;6.10;;;5.43;;
63320;SDS011;49449;48.800;9.534;2024-02-26T05:21:29;3.45;;;3.15;;
63320;SDS011;49449;48.800;9.534;2024-02-26T05:23:57;3.30;;;2.83;;
63320;SDS011;49449;48.800;9.534;2024-02-26T05:26:25;2.80;;;2.60;;
63320;SDS011;49449;48.800;9.534;2024-02-26T05:28:53;2.80;;;2.60;;
63320;SDS011;49449;48.800;9.534;2024-02-26T05:31:27;3.50;;;2.75;;
63320;SDS011;49449;48.800;9.534;2024-02-26T05:33:55;3.38;;;3.08;;
63320;SDS011;49449;48.800;9.534;2024-02-26T05:36:23;2.47;;;2.28;;
63320;SDS011;49449;48.800;9.534;2024-02-26T05:38:52;2.42;;;2.22;;
63320;SDS011;49449;48.800;9.534;2024-02-26T05:41:20;2.92;;;2.67;;
63320;SDS011;49449;48.800;9.534;2024-02-26T05:43:49;3.30;;;3.00;;
63320;SDS011;49449;48.800;9.534;2024-02-26T05:46:17;3.20;;;3.00;;
63320;SDS011;49449;48.800;9.534;2024-02-26T05:48:47;3.42;;;3.10;;
63320;SDS011;49449;48.800;9.534;2024-02-26T05:51:16;2.40;;;2.30;;
63320;SDS011;49449;48.800;9.534;2024-02-26T05:53:44;2.88;;;2.67;;
63320;SDS011;49449;48.800;9.534;2024-02-26T05:56:13;2.88;;;2.67;;
63320;SDS011;49449;48.800;9.534;2024-02-26T05:58:41;2.97;;;2.72;;
63320;SDS011;49449;48.800;9.534;2024-02-26T06:01:09;3.78;;;3.42;;
63320;SDS011;49449;48.800;9.534;2024-02-26T06:03:37;3.55;;;3.13;;
63320;SDS011;49449;48.800;9.534;2024-02-26T06:06:06;3.92;;;3.60;;
63320;SDS011;49449;48.800;9.534;2024-02-26T06:08:34;5.57;;;4.35;;
63320;SDS011;49449;48.800;9.534;2024-02-26T06:11:04;5.85;;;4.80;;
63320;SDS011;49449;48.800;9.534;2024-02-26T06:13:32;5.55;;;4.28;;
63320;SDS011;49449;48.800;9.534;2024-02-26T06:16:00;4.82;;;4.32;;
63320;SDS011;49449;48.800;9.534;2024-02-26T06:18:28;5.22;;;4.03;;
63320;SDS011;49449;48.800;9.534;2024-02-26T06:20:56;4.07;;;3.78;;
63320;SDS011;49449;48.800;9.534;2024-02-26T06:23:25;4.55;;;3.72;;
63320;SDS011;49449;48.800;9.534;2024-02-26T06:25:53;4.50;;;4.10;;
63320;SDS011;49449;48.800;9.534;2024-02-26T06:28:21;4.05;;;3.65;;
63320;SDS011;49449;48.800;9.534;2024-02-26T06:30:48;4.28;;;3.53;;
63320;SDS011;49449;48.800;9.534;2024-02-26T06:33:16;4.90;;;3.92;;
63320;SDS011;49449;48.800;9.534;2024-02-26T06:35:44;5.60;;;3.85;;
63320;SDS011;49449;48.800;9.534;2024-02-26T06:38:12;3.33;;;3.03;;
63320;SDS011;49449;48.800;9.534;2024-02-26T06:40:41;3.25;;;2.80;;
63320;SDS011;49449;48.800;9.534;2024-02-26T06:43:09;3.47;;;3.17;;
63320;SDS011;49449;48.800;9.534;2024-02-26T06:45:37;2.53;;;2.33;;
63320;SDS011;49449;48.800;9.534;2024-02-26T06:48:05;3.75;;;3.28;;
63320;SDS011;49449;48.800;9.534;2024-02-26T06:50:33;3.38;;;3.08;;
63320;SDS011;49449;48.800;9.534;2024-02-26T06:53:01;3.88;;;3.40;;
63320;SDS011;49449;48.800;9.534;2024-02-26T06:55:29;5.45;;;3.47;;
63320;SDS011;49449;48.800;9.534;2024-02-26T06:57:58;3.95;;;3.55;;
63320;SDS011;49449;48.800;9.534;2024-02-26T07:00:26;4.25;;;3.85;;
63320;SDS011;49449;48.800;9.534;2024-02-26T07:02:53;4.28;;;3.88;;
63320;SDS011;49449;48.800;9.534;2024-02-26T07:05:21;3.70;;;3.25;;
63320;SDS011;49449;48.800;9.534;2024-02-26T07:07:49;4.40;;;3.53;;
63320;SDS011;49449;48.800;9.534;2024-02-26T07:10:17;4.43;;;4.00;;
63320;SDS011;49449;48.800;9.534;2024-02-26T07:12:45;3.53;;;2.85;;
63320;SDS011;49449;48.800;9.534;2024-02-26T07:15:14;3.88;;;3.50;;
63320;SDS011;49449;48.800;9.534;2024-02-26T07:17:42;4.28;;;3.88;;
63320;SDS011;49449;48.800;9.534;2024-02-26T07:20:13;3.20;;;2.88;;
63320;SDS011;49449;48.800;9.534;2024-02-26T07:22:41;3.30;;;3.00;;
63320;SDS011;49449;48.800;9.534;2024-02-26T07:25:09;3.28;;;2.60;;
63320;SDS011;49449;48.800;9.534;2024-02-26T07:27:39;3.78;;;3.40;;
63320;SDS011;49449;48.800;9.534;2024-02-26T07:30:08;3.65;;;3.33;;
63320;SDS011;49449;48.800;9.534;2024-02-26T07:32:38;4.32;;;3.58;;
63320;SDS011;49449;48.800;9.534;2024-02-26T07:35:04;5.07;;;3.67;;
63320;SDS011;49449;48.800;9.534;2024-02-26T07:37:32;3.70;;;3.20;;
63320;SDS011;49449;48.800;9.534;2024-02-26T07:40:00;4.50;;;3.55;;
63320;SDS011;49449;48.800;9.534;2024-02-26T07:42:29;5.10;;;4.22;;
63320;SDS011;49449;48.800;9.534;2024-02-26T07:44:57;4.13;;;3.72;;
63320;SDS011;49449;48.800;9.534;2024-02-26T07:47:27;4.75;;;4.00;;
63320;SDS011;49449;48.800;9.534;2024-02-26T07:49:57;4.05;;;3.25;;
63320;SDS011;49449;48.800;9.534;2024-02-26T07:52:25;3.75;;;3.40;;
63320;SDS011;49449;48.800;9.534;2024-02-26T07:54:57;3.72;;;3.42;;
63320;SDS011;49449;48.800;9.534;2024-02-26T07:57:25;4.35;;;3.95;;
63320;SDS011;49449;48.800;9.534;2024-02-26T07:59:53;4.82;;;3.53;;
63320;SDS011;49449;48.800;9.534;2024-02-26T08:02:21;4.53;;;3.88;;
63320;SDS011;49449;48.800;9.534;2024-02-26T08:04:49;7.03;;;3.83;;
63320;SDS011;49449;48.800;9.534;2024-02-26T08:07:18;5.20;;;4.05;;
63320;SDS011;49449;48.800;9.534;2024-02-26T08:09:46;4.80;;;3.72;;
63320;SDS011;49449;48.800;9.534;2024-02-26T08:12:14;16.67;;;5.15;;
63320;SDS011;49449;48.800;9.534;2024-02-26T08:14:43;13.07;;;4.30;;
63320;SDS011;49449;48.800;9.534;2024-02-26T08:17:11;6.07;;;3.72;;
63320;SDS011;49449;48.800;9.534;2024-02-26T08:19:39;5.95;;;3.70;;
63320;SDS011;49449;48.800;9.534;2024-02-26T08:22:06;6.15;;;3.15;;
63320;SDS011;49449;48.800;9.534;2024-02-26T08:24:37;4.25;;;3.85;;
63320;SDS011;49449;48.800;9.534;2024-02-26T08:27:05;5.70;;;4.22;;
63320;SDS011;49449;48.800;9.534;2024-02-26T08:29:32;5.88;;;4.05;;
63320;SDS011;49449;48.800;9.534;2024-02-26T08:32:00;6.03;;;4.65;;
63320;SDS011;49449;48.800;9.534;2024-02-26T08:34:28;5.18;;;3.38;;
63320;SDS011;49449;48.800;9.534;2024-02-26T08:36:56;4.38;;;3.97;;
63320;SDS011;49449;48.800;9.534;2024-02-26T08:39:24;4.25;;;3.67;;
63320;SDS011;49449;48.800;9.534;2024-02-26T08:41:54;5.05;;;3.63;;
63320;SDS011;49449;48.800;9.534;2024-02-26T08:44:21;4.57;;;3.88;;
63320;SDS011;49449;48.800;9.534;2024-02-26T08:46:49;4.65;;;3.97;;
63320;SDS011;49449;48.800;9.534;2024-02-26T08:49:17;4.05;;;3.65;;
63320;SDS011;49449;48.800;9.534;2024-02-26T08:51:45;4.25;;;3.85;;
63320;SDS011;49449;48.800;9.534;2024-02-26T08:54:13;4.47;;;3.33;;
63320;SDS011;49449;48.800;9.534;2024-02-26T08:56:40;3.78;;;3.40;;
63320;SDS011;49449;48.800;9.534;2024-02-26T08:59:10;3.50;;;3.20;;
63320;SDS011;49449;48.800;9.534;2024-02-26T09:01:38;3.72;;;3.33;;
63320;SDS011;49449;48.800;9.534;2024-02-26T09:04:05;4.13;;;3.72;;
63320;SDS011;49449;48.800;9.534;2024-02-26T09:06:33;4.20;;;3.47;;
63320;SDS011;49449;48.800;9.534;2024-02-26T09:09:01;6.72;;;3.58;;
63320;SDS011;49449;48.800;9.534;2024-02-26T09:11:30;4.03;;;3.50;;
63320;SDS011;49449;48.800;9.534;2024-02-26T09:13:58;3.50;;;3.20;;
63320;SDS011;49449;48.800;9.534;2024-02-26T09:16:27;3.65;;;3.30;;
63320;SDS011;49449;48.800;9.534;2024-02-26T09:18:55;3.47;;;3.03;;
63320;SDS011;49449;48.800;9.534;2024-02-26T09:21:23;3.50;;;3.25;;
63320;SDS011;49449;48.800;9.534;2024-02-26T09:23:51;2.80;;;2.45;;
63320;SDS011;49449;48.800;9.534;2024-02-26T09:26:20;3.80;;;3.00;;
63320;SDS011;49449;48.800;9.534;2024-02-26T09:28:47;3.78;;;2.92;;
63320;SDS011;49449;48.800;9.534;2024-02-26T09:31:17;3.33;;;3.03;;
63320;SDS011;49449;48.800;9.534;2024-02-26T09:33:46;3.00;;;2.80;;
63320;SDS011;49449;48.800;9.534;2024-02-26T09:36:14;3.97;;;2.22;;
63320;SDS011;49449;48.800;9.534;2024-02-26T09:38:42;3.28;;;2.80;;
63320;SDS011;49449;48.800;9.534;2024-02-26T09:41:14;3.35;;;3.05;;
63320;SDS011;49449;48.800;9.534;2024-02-26T09:43:43;3.75;;;2.47;;
63320;SDS011;49449;48.800;9.534;2024-02-26T09:46:12;3.20;;;2.85;;
63320;SDS011;49449;48.800;9.534;2024-02-26T09:48:42;5.30;;;3.00;;
63320;SDS011;49449;48.800;9.534;2024-02-26T09:51:13;5.30;;;3.88;;
63320;SDS011;49449;48.800;9.534;2024-02-26T09:53:43;3.88;;;3.55;;
63320;SDS011;49449;48.800;9.534;2024-02-26T09:56:11;4.13;;;3.65;;
63320;SDS011;49449;48.800;9.534;2024-02-26T09:58:40;3.92;;;3.40;;
63320;SDS011;49449;48.800;9.534;2024-02-26T10:03:41;3.42;;;3.13;;
63320;SDS011;49449;48.800;9.534;2024-02-26T10:06:11;3.75;;;3.35;;
63320;SDS011;49449;48.800;9.534;2024-02-26T10:08:40;3.70;;;3.35;;
63320;SDS011;49449;48.800;9.534;2024-02-26T10:11:10;3.67;;;3.38;;
63320;SDS011;49449;48.800;9.534;2024-02-26T10:13:38;4.20;;;3.10;;
63320;SDS011;49449;48.800;9.534;2024-02-26T10:16:06;3.65;;;3.35;;
63320;SDS011;49449;48.800;9.534;2024-02-26T10:18:47;4.78;;;3.95;;
63320;SDS011;49449;48.800;9.534;2024-02-26T10:21:21;3.88;;;3.03;;
63320;SDS011;49449;48.800;9.534;2024-02-26T10:23:50;3.42;;;3.13;;
63320;SDS011;49449;48.800;9.534;2024-02-26T10:26:19;4.57;;;3.30;;
63320;SDS011;49449;48.800;9.534;2024-02-26T10:28:48;3.92;;;3.55;;
63320;SDS011;49449;48.800;9.534;2024-02-26T10:31:16;4.55;;;4.00;;
63320;SDS011;49449;48.800;9.534;2024-02-26T10:33:45;4.68;;;4.00;;
63320;SDS011;49449;48.800;9.534;2024-02-26T10:36:13;3.40;;;3.10;;
63320;SDS011;49449;48.800;9.534;2024-02-26T10:38:41;4.25;;;2.88;;
63320;SDS011;49449;48.800;9.534;2024-02-26T10:41:12;3.17;;;2.88;;
63320;SDS011;49449;48.800;9.534;2024-02-26T10:43:41;2.88;;;2.50;;
63320;SDS011;49449;48.800;9.534;2024-02-26T10:46:09;3.20;;;2.90;;
63320;SDS011;49449;48.800;9.534;2024-02-26T10:48:38;3.20;;;2.90;;
63320;SDS011;49449;48.800;9.534;2024-02-26T10:51:05;3.03;;;2.83;;
63320;SDS011;49449;48.800;9.534;2024-02-26T10:53:36;2.75;;;2.55;;
63320;SDS011;49449;48.800;9.534;2024-02-26T10:56:05;3.08;;;2.75;;
63320;SDS011;49449;48.800;9.534;2024-02-26T10:58:36;3.17;;;2.25;;
63320;SDS011;49449;48.800;9.534;2024-02-26T11:01:04;3.05;;;2.60;;
63320;SDS011;49449;48.800;9.534;2024-02-26T11:03:33;2.38;;;1.95;;
63320;SDS011;49449;48.800;9.534;2024-02-26T11:06:03;2.10;;;1.90;;
63320;SDS011;49449;48.800;9.534;2024-02-26T11:08:32;2.10;;;1.90;;
63320;SDS011;49449;48.800;9.534;2024-02-26T11:11:00;2.75;;;2.50;;
63320;SDS011;49449;48.800;9.534;2024-02-26T11:13:28;2.10;;;2.00;;
63320;SDS011;49449;48.800;9.534;2024-02-26T11:16:00;2.20;;;2.10;;
63320;SDS011;49449;48.800;9.534;2024-02-26T11:18:27;3.15;;;2.55;;
63320;SDS011;49449;48.800;9.534;2024-02-26T11:20:57;3.00;;;2.70;;
63320;SDS011;49449;48.800;9.534;2024-02-26T11:23:26;2.40;;;2.20;;
63320;SDS011;49449;48.800;9.534;2024-02-26T11:25:55;2.30;;;2.20;;
63320;SDS011;49449;48.800;9.534;2024-02-26T11:28:26;1.63;;;1.52;;
63320;SDS011;49449;48.800;9.534;2024-02-26T11:30:55;2.40;;;1.85;;
63320;SDS011;49449;48.800;9.534;2024-02-26T11:35:55;1.90;;;1.80;;
63320;SDS011;49449;48.800;9.534;2024-02-26T11:38:25;2.65;;;2.45;;
63320;SDS011;49449;48.800;9.534;2024-02-26T11:40:54;1.92;;;1.83;;
63320;SDS011;49449;48.800;9.534;2024-02-26T11:43:23;2.08;;;1.98;;
63320;SDS011;49449;48.800;9.534;2024-02-26T11:45:51;1.85;;;1.75;;
63320;SDS011;49449;48.800;9.534;2024-02-26T11:48:25;2.33;;;1.60;;
63320;SDS011;49449;48.800;9.534;2024-02-26T11:50:57;1.85;;;1.75;;
63320;SDS011;49449;48.800;9.534;2024-02-26T11:53:26;1.60;;;1.25;;
63320;SDS011;49449;48.800;9.534;2024-02-26T11:58:41;2.05;;;1.95;;
63320;SDS011;49449;48.800;9.534;2024-02-26T12:04:11;3.75;;;2.42;;
63320;SDS011;49449;48.800;9.534;2024-02-26T12:06:42;3.20;;;1.73;;
63320;SDS011;49449;48.800;9.534;2024-02-26T12:09:12;3.10;;;2.58;;
63320;SDS011;49449;48.800;9.534;2024-02-26T12:11:41;1.80;;;1.60;;
63320;SDS011;49449;48.800;9.534;2024-02-26T12:14:09;2.00;;;1.90;;
63320;SDS011;49449;48.800;9.534;2024-02-26T12:16:37;3.08;;;2.42;;
63320;SDS011;49449;48.800;9.534;2024-02-26T12:19:06;2.08;;;1.70;;
63320;SDS011;49449;48.800;9.534;2024-02-26T12:21:37;3.85;;;2.10;;
63320;SDS011;49449;48.800;9.534;2024-02-26T12:24:11;2.33;;;1.80;;
63320;SDS011;49449;48.800;9.534;2024-02-26T12:26:40;2.50;;;2.30;;
63320;SDS011;49449;48.800;9.534;2024-02-26T12:29:09;2.25;;;1.67;;
63320;SDS011;49449;48.800;9.534;2024-02-26T12:31:37;1.67;;;1.58;;
63320;SDS011;49449;48.800;9.534;2024-02-26T12:34:06;1.83;;;1.65;;
63320;SDS011;49449;48.800;9.534;2024-02-26T12:36:36;2.65;;;2.15;;
63320;SDS011;49449;48.800;9.534;2024-02-26T12:39:06;2.13;;;1.70;;
63320;SDS011;49449;48.800;9.534;2024-02-26T12:41:35;1.65;;;1.55;;
63320;SDS011;49449;48.800;9.534;2024-02-26T12:44:05;2.33;;;2.22;;
63320;SDS011;49449;48.800;9.534;2024-02-26T12:46:34;1.77;;;1.67;;
63320;SDS011;49449;48.800;9.534;2024-02-26T12:49:02;2.53;;;2.33;;
63320;SDS011;49449;48.800;9.534;2024-02-26T12:51:31;2.17;;;1.98;;
63320;SDS011;49449;48.800;9.534;2024-02-26T12:54:00;2.35;;;2.15;;
63320;SDS011;49449;48.800;9.534;2024-02-26T12:56:29;1.83;;;1.60;;
63320;SDS011;49449;48.800;9.534;2024-02-26T12:58:58;2.30;;;2.20;;
63320;SDS011;49449;48.800;9.534;2024-02-26T13:01:26;2.45;;;2.22;;
63320;SDS011;49449;48.800;9.534;2024-02-26T13:03:56;3.42;;;2.00;;
63320;SDS011;49449;48.800;9.534;2024-02-26T13:06:27;1.95;;;1.85;;
63320;SDS011;49449;48.800;9.534;2024-02-26T13:08:57;1.92;;;1.77;;
63320;SDS011;49449;48.800;9.534;2024-02-26T13:11:25;2.42;;;2.05;;
63320;SDS011;49449;48.800;9.534;2024-02-26T13:13:55;1.67;;;1.58;;
63320;SDS011;49449;48.800;9.534;2024-02-26T13:16:23;2.33;;;2.15;;
63320;SDS011;49449;48.800;9.534;2024-02-26T13:18:52;2.40;;;2.20;;
63320;SDS011;49449;48.800;9.534;2024-02-26T13:21:20;3.35;;;2.30;;
63320;SDS011;49449;48.800;9.534;2024-02-26T13:23:51;3.67;;;2.17;;
63320;SDS011;49449;48.800;9.534;2024-02-26T13:26:22;2.92;;;2.67;;
63320;SDS011;49449;48.800;9.534;2024-02-26T13:29:01;2.90;;;2.28;;
63320;SDS011;49449;48.800;9.534;2024-02-26T13:31:29;3.40;;;2.47;;
63320;SDS011;49449;48.800;9.534;2024-02-26T13:33:57;2.83;;;2.47;;
63320;SDS011;49449;48.800;9.534;2024-02-26T13:36:25;3.00;;;2.70;;
63320;SDS011;49449;48.800;9.534;2024-02-26T13:38:53;2.30;;;2.10;;
63320;SDS011;49449;48.800;9.534;2024-02-26T13:41:23;2.15;;;1.83;;
63320;SDS011;49449;48.800;9.534;2024-02-26T13:43:51;1.83;;;1.67;;
63320;SDS011;49449;48.800;9.534;2024-02-26T13:46:20;2.28;;;2.00;;
63320;SDS011;49449;48.800;9.534;2024-02-26T13:48:47;2.63;;;2.38;;
63320;SDS011;49449;48.800;9.534;2024-02-26T13:51:15;2.38;;;2.28;;
63320;SDS011;49449;48.800;9.534;2024-02-26T13:53:44;3.20;;;2.27;;
63320;SDS011;49449;48.800;9.534;2024-02-26T13:56:11;2.42;;;2.20;;
63320;SDS011;49449;48.800;9.534;2024-02-26T13:58:41;2.17;;;1.98;;
63320;SDS011;49449;48.800;9.534;2024-02-26T14:01:08;2.85;;;2.65;;
63320;SDS011;49449;48.800;9.534;2024-02-26T14:03:36;1.90;;;1.70;;
63320;SDS011;49449;48.800;9.534;2024-02-26T14:06:04;2.75;;;2.55;;
63320;SDS011;49449;48.800;9.534;2024-02-26T14:08:32;2.58;;;1.77;;
63320;SDS011;49449;48.800;9.534;2024-02-26T14:11:00;2.60;;;2.40;;
63320;SDS011;49449;48.800;9.534;2024-02-26T14:13:28;2.08;;;1.98;;
63320;SDS011;49449;48.800;9.534;2024-02-26T14:15:57;2.65;;;2.45;;
63320;SDS011;49449;48.800;9.534;2024-02-26T14:18:25;2.90;;;2.38;;
63320;SDS011;49449;48.800;9.534;2024-02-26T14:20:53;2.78;;;2.47;;
63320;SDS011;49449;48.800;9.534;2024-02-26T14:23:21;3.38;;;2.72;;
63320;SDS011;49449;48.800;9.534;2024-02-26T14:25:49;2.78;;;2.58;;
63320;SDS011;49449;48.800;9.534;2024-02-26T14:28:18;2.13;;;1.90;;
63320;SDS011;49449;48.800;9.534;2024-02-26T14:30:47;3.10;;;2.58;;
63320;SDS011;49449;48.800;9.534;2024-02-26T14:33:16;2.78;;;2.58;;
63320;SDS011;49449;48.800;9.534;2024-02-26T14:35:44;2.00;;;1.90;;
63320;SDS011;49449;48.800;9.534;2024-02-26T14:38:11;3.20;;;1.83;;
63320;SDS011;49449;48.800;9.534;2024-02-26T14:40:39;1.70;;;1.60;;
63320;SDS011;49449;48.800;9.534;2024-02-26T14:43:07;1.95;;;1.73;;
63320;SDS011;49449;48.800;9.534;2024-02-26T14:45:36;2.92;;;2.63;;
63320;SDS011;49449;48.800;9.534;2024-02-26T14:48:04;2.65;;;2.20;;
63320;SDS011;49449;48.800;9.534;2024-02-26T14:50:35;2.78;;;2.08;;
63320;SDS011;49449;48.800;9.534;2024-02-26T14:53:03;3.13;;;2.83;;
63320;SDS011;49449;48.800;9.534;2024-02-26T14:55:31;2.63;;;2.17;;
63320;SDS011;49449;48.800;9.534;2024-02-26T14:58:00;2.40;;;2.20;;
63320;SDS011;49449;48.800;9.534;2024-02-26T15:00:28;2.88;;;2.42;;
63320;SDS011;49449;48.800;9.534;2024-02-26T15:03:00;4.95;;;2.90;;
63320;SDS011;49449;48.800;9.534;2024-02-26T15:05:27;5.47;;;3.10;;
63320;SDS011;49449;48.800;9.534;2024-02-26T15:07:57;3.30;;;3.00;;